Saturday, February 13, 2016
21:36 UTC
  |  Log In   |  Register Free
Airport Search:

Chanute Martin Johnson Airport
(KCNU)

Chanute Martin Johnson Airport Diagram
No Airport Diagram Available

FAA data valid effective Feb 4 2016 - Mar 31 2016 (unless otherwise noted).

 
 
 
 
 
 
 
 
 
 
 
 
 
 
Current Aviation Weather for KCNU

Weather Summary


The most recent METAR observation for CNU was updated at: 12:52 UTC
METAR for KCNU is not available. Closest METAR is for KPPF
KCNU  (most recent observation was updatred at 13:20 UTC)
132052Z AUTO 09011KT 10SM CLR 03/M16 A3031 RMK AO2 SLP273 T00331161 58054

KPPF  (20.3 nm NE)   (most recent observation was updated at 13:20 UTC)
132052Z AUTO 08007KT 050V150 10SM CLR 05/M16 A3032 RMK AO2 SLP272 T00501156 56057

KIDP  (33.7 nm NE)   (most recent observation was updated at 13:21 UTC)
132115Z AUTO 09011G14KT 10SM CLR 05/M15 A3028 RMK AO2

TAF for KCNU is not available.
KCNU
131740Z 1318/1418 11009KT P6SM OVC200 FM132000 10013KT P6SM BKN060 FM140000 09007KT P6SM BKN060

GlobalAir.com is loading additional information.
 Current Weather at CNU
38.0 F° (3.3 C°)

Southeast winds at 11.5 mph
Pressure:
30.37 in
Humidity:
22%
Wind:
Southeast at 11.5 mph
Dew Point:
1.9 F° (-16.7 C°)
Visibility:
10.00 mi
CNU NOAA Radar




Find All Airport Services Find A Hotel Find A Rental Car Find A Golf Course Find A Restaurant $100 Hamburger



Airport Weather Forecast for KCNU

Translated METAR for KCNU (2052 UTC)
METAR:
KCNU 132052Z AUTO 09011KT 10SM CLR 03/M16 A3031 RMK AO2 SLP273 T00331161 58054
Conditions at:
KCNU (Chanute Martin Johnson, KS) observed 2052 UTC 13 February 2016
Temperature:
3°C (37.4°F)
Dewpoint:
-16°C (3.2°F) [RH = 23.3]
Pressure:
30.31 inches Hg (1026.4 mb)
pressure at sea level is 273 in Hg
Winds:
from the E (090 degrees) at 12.7 mph (11 knots: 5.7 m/s)
Visibility:
10 mile(s)
Ceiling:
at least 12,000 feet AGL
Clouds:
Clear below 12,000 feet AGL
Remarks:
site is un-manned
site is automated and HAS a precipitation sensor

Translated TAF for KCNU (Chanute Martin Johnson, KS) (1740 UTC)
TAF text:
KCNU 131740Z 1318/1418 11009KT P6SM OVC200
Forecast period:
Saturday Feb 13 2016 18:00 UTC - Sunday Feb 14 2016 18:00 UTC
Forecast type:
FROM: standard forecast or significant change
Winds:
from the ESE (110 degrees) at 10.4 mph (9 knots: 4.6 m/s)
Visibility:
6 or more mile(s) (9.7+ km)
Ceiling:
20,000 feet AGL
Clouds:
Overcast Skies at 20,000 feet AGL
Weather:
no significant weather observed at this time
TAF text:
FM132000 10013KT P6SM BKN060
Forecast period:
Saturday Feb 13 2016 20:00 UTC - Sunday Feb 14 2016 00:00 UTC
Forecast type:
FROM: standard forecast or significant change
Winds:
from the E (100 degrees) at 15 mph (13 knots: 6.7 m/s)
Visibility:
6 or more mile(s) (9.7+ km)
Ceiling:
6,000 feet AGL
Clouds:
Broken Cloud Cover at 6,000 feet AGL
Weather:
no significant weather observed at this time
TAF text:
FM140000 09007KT P6SM BKN060
Forecast period:
Sunday Feb 14 2016 00:00 UTC - Sunday Feb 14 2016 18:00 UTC
Forecast type:
FROM: standard forecast or significant change
Winds:
from the E (090 degrees) at 8.1 mph (7 knots: 3.6 m/s)
Visibility:
6 or more mile(s) (9.7+ km)
Ceiling:
6,000 feet AGL
Clouds:
Broken Cloud Cover at 6,000 feet AGL
Weather:
no significant weather observed at this time
FBO's on the Field
FBO Company Facility Photos Services Transportation Aviation Fuel Prices: Prices include tax
Catering Weather Repair Courtesy Rental Type 100LL JetA JetA+ MOGAS 8087
 
City of Chanute

This FBO has not yet been rated
FS:Phillips 66
Last Updated: Jan-14
Login to update fuel prices
SS:
Contact City of ChanuteMore FBO Information
 
Add another FBO Facility Photos Catering Weather Repair Courtesy Rental Type 100LL JetA JetA+ MOGAS 8087
Services Transportation Aviation Fuel Prices: Prices include tax


model-print
model-print
model-print
model-print